createdAt,value
2022-12-31T00:00:42.866Z,99222.13
2022-12-31T00:03:10.140Z,99215.09
2022-12-31T00:05:36.673Z,99218.59
2022-12-31T00:08:03.021Z,99215.09
2022-12-31T00:10:29.577Z,99227.47
2022-12-31T00:12:55.908Z,99235.47
2022-12-31T00:15:22.245Z,99238.13
2022-12-31T00:17:49.907Z,99238.13
2022-12-31T00:20:16.261Z,99238.13
2022-12-31T00:22:42.590Z,99242.47
2022-12-31T00:25:09.365Z,99259.47
2022-12-31T00:27:35.692Z,99243.47
2022-12-31T00:30:04.698Z,99246.97
2022-12-31T00:32:31.404Z,99242.47
2022-12-31T00:34:59.234Z,99247.81
2022-12-31T00:37:25.515Z,99247.81
2022-12-31T00:39:51.886Z,99254.00
2022-12-31T00:42:18.179Z,99270.84
2022-12-31T00:44:44.583Z,99251.31
2022-12-31T00:47:10.954Z,99246.97
2022-12-31T00:49:37.297Z,99256.81
2022-12-31T00:52:05.112Z,99260.31
2022-12-31T00:54:31.431Z,99266.50
2022-12-31T00:56:57.771Z,99268.19
2022-12-31T00:59:24.095Z,99276.19
2022-12-31T01:01:50.520Z,99269.00
2022-12-31T01:04:18.654Z,99289.53
2022-12-31T01:06:45.516Z,99308.22
2022-12-31T01:09:14.395Z,99278.84
2022-12-31T01:11:40.760Z,99278.84
2022-12-31T01:14:07.899Z,99265.50
2022-12-31T01:16:34.993Z,99255.81
2022-12-31T01:19:03.223Z,99258.34
2022-12-31T01:21:29.563Z,99266.34
2022-12-31T01:23:55.891Z,99276.19
2022-12-31T01:26:23.494Z,99293.88
2022-12-31T01:28:49.875Z,99281.41
2022-12-31T01:31:17.202Z,99312.56
2022-12-31T01:33:44.177Z,99319.59
2022-12-31T01:36:12.000Z,99320.56
2022-12-31T01:38:38.623Z,99307.94
2022-12-31T01:41:05.119Z,99335.63
2022-12-31T01:43:41.269Z,99324.09
2022-12-31T01:46:10.542Z,99324.94
2022-12-31T01:48:36.916Z,99315.94
2022-12-31T01:51:04.607Z,99308.94
2022-12-31T01:53:31.004Z,99299.94
2022-12-31T01:55:58.765Z,99314.13
2022-12-31T01:58:27.241Z,99316.78
2022-12-31T02:00:53.711Z,99311.59
2022-12-31T02:03:22.606Z,99313.28
2022-12-31T02:05:51.555Z,99324.94
2022-12-31T02:08:18.252Z,99330.00
2022-12-31T02:10:44.818Z,99335.47
2022-12-31T02:13:11.225Z,99346.13
2022-12-31T02:15:44.639Z,99335.47
2022-12-31T02:18:16.552Z,99335.47
2022-12-31T02:20:54.033Z,99329.28
2022-12-31T02:23:26.644Z,99329.13
2022-12-31T02:26:03.313Z,99360.31
2022-12-31T02:28:37.807Z,99355.81
2022-12-31T02:31:08.736Z,99346.03
2022-12-31T02:33:38.787Z,99342.47
2022-12-31T02:36:09.364Z,99354.97
2022-12-31T02:38:38.845Z,99354.03
2022-12-31T02:41:05.384Z,99350.50
2022-12-31T02:43:31.681Z,99357.53
2022-12-31T02:46:12.830Z,99348.69
2022-12-31T02:48:44.395Z,99330.84
2022-12-31T02:51:17.701Z,99341.53
2022-12-31T02:53:52.179Z,99345.03
2022-12-31T02:56:22.436Z,99353.03
2022-12-31T02:58:53.281Z,99349.53
2022-12-31T03:01:22.897Z,99340.69
2022-12-31T03:03:50.613Z,99346.88
2022-12-31T03:06:16.973Z,99341.38
2022-12-31T03:08:43.260Z,99353.03
2022-12-31T03:11:09.735Z,99366.38
2022-12-31T03:13:36.065Z,99355.72
2022-12-31T03:16:02.375Z,99356.53
2022-12-31T03:18:28.685Z,99369.88
2022-12-31T03:20:56.334Z,99362.72
2022-12-31T03:23:24.284Z,99354.72
2022-12-31T03:25:50.690Z,99340.53
2022-12-31T03:28:18.453Z,99340.53
2022-12-31T03:30:46.360Z,99341.38
2022-12-31T03:33:12.677Z,99358.38
2022-12-31T03:35:39.828Z,99352.88
2022-12-31T03:38:07.727Z,99348.53
2022-12-31T03:40:37.487Z,99347.69
2022-12-31T03:43:03.943Z,99347.69
2022-12-31T03:45:30.424Z,99341.38
2022-12-31T03:47:56.802Z,99338.69
2022-12-31T03:50:23.159Z,99354.72
2022-12-31T03:52:49.520Z,99354.72
2022-12-31T03:55:17.120Z,99344.88
2022-12-31T03:57:43.492Z,99352.03
2022-12-31T04:00:12.513Z,99348.38
2022-12-31T04:02:38.961Z,99351.94
2022-12-31T04:05:05.848Z,99344.75
2022-12-31T04:07:32.198Z,99384.81
2022-12-31T04:09:58.499Z,99384.81
2022-12-31T04:12:26.160Z,99379.47
2022-12-31T04:14:52.591Z,99374.97
2022-12-31T04:17:18.888Z,99393.66
2022-12-31T04:19:45.232Z,99387.47
2022-12-31T04:22:11.638Z,99374.13
2022-12-31T04:24:37.924Z,99402.50
2022-12-31T04:27:07.844Z,99391.81
2022-12-31T04:29:36.032Z,99429.19
2022-12-31T04:32:03.110Z,99429.19
2022-12-31T04:34:29.424Z,99439.88
2022-12-31T04:36:55.789Z,99428.34
2022-12-31T04:39:22.123Z,99418.50
2022-12-31T04:41:48.469Z,99418.50
2022-12-31T04:44:14.769Z,99421.19
2022-12-31T04:46:42.712Z,99418.50
2022-12-31T04:49:09.085Z,99426.50
2022-12-31T04:51:35.909Z,99426.50
2022-12-31T04:54:02.236Z,99424.69
2022-12-31T04:56:28.743Z,99421.19
2022-12-31T04:58:55.142Z,99414.00
2022-12-31T05:01:21.914Z,99409.50
2022-12-31T05:03:49.760Z,99413.16
2022-12-31T05:06:18.101Z,99416.56
2022-12-31T05:08:44.420Z,99421.03
2022-12-31T05:11:10.810Z,99446.88
2022-12-31T05:13:37.436Z,99439.72
2022-12-31T05:16:04.011Z,99425.53
2022-12-31T05:18:31.012Z,99421.91
2022-12-31T05:20:58.680Z,99427.25
2022-12-31T05:23:25.565Z,99459.28
2022-12-31T05:25:52.104Z,99437.91
2022-12-31T05:28:18.767Z,99432.56
2022-12-31T05:30:47.643Z,99428.91
2022-12-31T05:33:14.066Z,99425.41
2022-12-31T05:35:40.542Z,99439.59
2022-12-31T05:38:08.191Z,99428.06
2022-12-31T05:40:34.589Z,99432.56
2022-12-31T05:43:00.909Z,99429.91
2022-12-31T05:45:31.034Z,99434.25
2022-12-31T05:47:58.082Z,99436.94
2022-12-31T05:50:24.531Z,99450.28
2022-12-31T05:52:50.946Z,99440.59
2022-12-31T05:55:18.802Z,99451.09
2022-12-31T05:57:45.184Z,99444.09
2022-12-31T06:00:12.350Z,99448.59
2022-12-31T06:02:38.657Z,99465.44
2022-12-31T06:05:05.397Z,99468.81
2022-12-31T06:07:31.849Z,99462.63
2022-12-31T06:09:58.174Z,99472.47
2022-12-31T06:12:25.806Z,99485.66
2022-12-31T06:14:52.127Z,99484.81
2022-12-31T06:17:19.152Z,99478.66
2022-12-31T06:19:46.495Z,99492.84
2022-12-31T06:22:12.935Z,99473.31
2022-12-31T06:24:39.310Z,99478.66
2022-12-31T06:27:05.598Z,99480.47
2022-12-31T06:29:33.219Z,99495.50
2022-12-31T06:31:59.599Z,99484.81
2022-12-31T06:34:25.924Z,99495.50
2022-12-31T06:36:52.260Z,99506.19
2022-12-31T06:39:18.626Z,99523.91
2022-12-31T06:41:44.919Z,99512.38
2022-12-31T06:44:11.245Z,99523.03
2022-12-31T06:46:39.004Z,99526.59
2022-12-31T06:49:05.374Z,99535.44
2022-12-31T06:51:31.664Z,99536.28
2022-12-31T06:53:58.145Z,99536.28
2022-12-31T06:56:33.033Z,99544.41
2022-12-31T06:59:00.652Z,99539.06
2022-12-31T07:01:30.479Z,99544.41
2022-12-31T07:04:01.227Z,99553.28
2022-12-31T07:06:30.842Z,99546.09
2022-12-31T07:09:03.773Z,99543.44
2022-12-31T07:11:35.594Z,99551.44
2022-12-31T07:14:07.757Z,99544.41
2022-12-31T07:16:40.580Z,99551.44
2022-12-31T07:19:13.205Z,99546.09
2022-12-31T07:21:40.252Z,99527.44
2022-12-31T07:24:07.755Z,99539.94
2022-12-31T07:26:44.982Z,99539.19
2022-12-31T07:29:15.153Z,99537.25
2022-12-31T07:31:49.958Z,99540.78
2022-12-31T07:34:22.113Z,99560.28
2022-12-31T07:36:54.608Z,99558.63
2022-12-31T07:39:26.641Z,99554.13
2022-12-31T07:41:59.088Z,99549.72
2022-12-31T07:44:31.284Z,99555.06
2022-12-31T07:46:58.706Z,99551.44
2022-12-31T07:49:27.941Z,99552.41
2022-12-31T07:51:54.608Z,99557.75
2022-12-31T07:54:21.112Z,99563.09
2022-12-31T07:56:47.687Z,99564.91
2022-12-31T07:59:23.952Z,99573.75
2022-12-31T08:01:53.953Z,99578.16
2022-12-31T08:04:26.375Z,99571.09
2022-12-31T08:06:58.165Z,99568.41
2022-12-31T08:09:29.711Z,99562.25
2022-12-31T08:11:57.375Z,99562.13
2022-12-31T08:14:23.932Z,99591.59
2022-12-31T08:16:50.458Z,99578.25
2022-12-31T08:19:22.505Z,99596.09
2022-12-31T08:21:53.139Z,99591.59
2022-12-31T08:24:26.202Z,99618.31
2022-12-31T08:26:59.088Z,99620.84
2022-12-31T08:29:33.035Z,99628.03
2022-12-31T08:32:03.778Z,99635.16
2022-12-31T08:34:35.099Z,99635.16
2022-12-31T08:37:05.586Z,99637.84
2022-12-31T08:39:39.501Z,99642.22
2022-12-31T08:42:14.411Z,99629.81
2022-12-31T08:44:44.584Z,99648.50
2022-12-31T08:47:16.955Z,99633.47
2022-12-31T08:49:43.456Z,99650.34
2022-12-31T08:52:14.555Z,99660.06
2022-12-31T08:54:42.638Z,99647.66
2022-12-31T08:57:13.637Z,99636.16
2022-12-31T08:59:43.886Z,99637.84
2022-12-31T09:02:26.439Z,99637.00
2022-12-31T09:04:59.678Z,99630.81
2022-12-31T09:07:31.851Z,99620.13
2022-12-31T09:10:02.907Z,99609.59
2022-12-31T09:12:32.494Z,99622.81
2022-12-31T09:15:03.737Z,99625.47
2022-12-31T09:17:37.548Z,99617.47
2022-12-31T09:20:04.853Z,99612.13
2022-12-31T09:22:31.367Z,99610.44
2022-12-31T09:24:57.982Z,99617.47
2022-12-31T09:27:28.336Z,99611.28
2022-12-31T09:30:00.062Z,99617.47
2022-12-31T09:32:30.211Z,99626.31
2022-12-31T09:34:58.022Z,99625.47
2022-12-31T09:37:33.928Z,99626.19
2022-12-31T09:40:07.756Z,99612.13
2022-12-31T09:42:43.994Z,99608.47
2022-12-31T09:45:20.882Z,99604.00
2022-12-31T09:47:57.129Z,99596.94
2022-12-31T09:50:38.325Z,99604.94
2022-12-31T09:53:17.701Z,99615.53
2022-12-31T09:55:48.485Z,99609.34
2022-12-31T09:58:22.037Z,99601.34
2022-12-31T10:00:51.648Z,99599.50
2022-12-31T10:03:29.479Z,99612.97
2022-12-31T10:06:08.373Z,99601.44
2022-12-31T10:08:45.573Z,99597.78
2022-12-31T10:11:16.548Z,99590.75
2022-12-31T10:13:49.294Z,99600.47
2022-12-31T10:16:24.656Z,99586.28
2022-12-31T10:19:00.913Z,99588.81
2022-12-31T10:21:34.837Z,99575.59
2022-12-31T10:24:17.166Z,99577.41
2022-12-31T10:26:53.440Z,99567.47
2022-12-31T10:29:24.702Z,99565.75
2022-12-31T10:31:58.149Z,99563.09
2022-12-31T10:34:26.589Z,99572.81
2022-12-31T10:36:54.837Z,99570.25
2022-12-31T10:39:28.460Z,99564.91
2022-12-31T10:42:05.159Z,99563.09
2022-12-31T10:44:41.439Z,99571.09
2022-12-31T10:47:17.299Z,99567.47
2022-12-31T10:49:43.500Z,99546.09
2022-12-31T10:52:10.754Z,99546.94
2022-12-31T10:54:46.987Z,99554.97
2022-12-31T10:57:27.996Z,99545.28
2022-12-31T11:00:07.216Z,99548.78
2022-12-31T11:02:48.821Z,99540.78
2022-12-31T11:05:25.128Z,99548.78
2022-12-31T11:07:57.503Z,99543.44
2022-12-31T11:10:33.696Z,99543.44
2022-12-31T11:13:09.954Z,99550.47
2022-12-31T11:15:50.253Z,99534.59
2022-12-31T11:18:26.816Z,99531.03
2022-12-31T11:21:02.839Z,99548.78
2022-12-31T11:23:35.418Z,99537.13
2022-12-31T11:26:06.736Z,99533.59
2022-12-31T11:28:43.434Z,99530.09
2022-12-31T11:31:19.497Z,99527.44
2022-12-31T11:33:52.738Z,99527.44
2022-12-31T11:36:24.360Z,99522.09
2022-12-31T11:38:51.414Z,99520.25
2022-12-31T11:41:22.858Z,99521.09
2022-12-31T11:43:53.778Z,99531.78
2022-12-31T11:46:30.120Z,99533.59
2022-12-31T11:49:05.314Z,99521.94
2022-12-31T11:51:39.529Z,99510.41
2022-12-31T11:54:20.537Z,99516.59
2022-12-31T11:56:50.878Z,99514.91
2022-12-31T11:59:19.772Z,99493.56
2022-12-31T12:01:51.528Z,99500.56
2022-12-31T12:04:19.198Z,99499.75
2022-12-31T12:06:45.555Z,99496.22
2022-12-31T12:09:14.653Z,99497.78
2022-12-31T12:11:41.091Z,99497.78
2022-12-31T12:14:18.374Z,99488.91
2022-12-31T12:16:44.722Z,99479.22
2022-12-31T12:19:16.930Z,99491.56
2022-12-31T12:21:47.219Z,99481.78
2022-12-31T12:24:18.937Z,99476.56
2022-12-31T12:26:45.301Z,99463.09
2022-12-31T12:29:12.386Z,99461.25
2022-12-31T12:31:39.085Z,99453.38
2022-12-31T12:34:05.894Z,99442.69
2022-12-31T12:36:32.271Z,99433.72
2022-12-31T12:39:04.522Z,99432.84
2022-12-31T12:41:31.132Z,99434.56
2022-12-31T12:44:05.773Z,99431.88
2022-12-31T12:46:33.689Z,99420.22
2022-12-31T12:49:00.138Z,99417.69
2022-12-31T12:51:33.360Z,99406.03
2022-12-31T12:54:06.616Z,99417.69
2022-12-31T12:56:40.629Z,99401.69
2022-12-31T12:59:22.055Z,99403.38
2022-12-31T13:01:55.471Z,99398.03
2022-12-31T13:04:34.585Z,99395.34
2022-12-31T13:07:09.658Z,99390.00
2022-12-31T13:09:42.957Z,99398.03
2022-12-31T13:12:14.538Z,99398.88
2022-12-31T13:14:43.555Z,99413.06
2022-12-31T13:17:24.132Z,99410.38
2022-12-31T13:19:53.419Z,99400.53
2022-12-31T13:22:22.874Z,99382.00
2022-12-31T13:24:53.937Z,99399.69
2022-12-31T13:27:25.078Z,99391.69
2022-12-31T13:29:52.195Z,99382.84
2022-12-31T13:32:20.416Z,99379.19
2022-12-31T13:34:49.782Z,99385.41
2022-12-31T13:37:20.168Z,99379.19
2022-12-31T13:39:48.255Z,99378.34
2022-12-31T13:42:16.774Z,99379.19
2022-12-31T13:44:47.730Z,99384.53
2022-12-31T13:47:17.449Z,99369.38
2022-12-31T13:49:46.238Z,99371.19
2022-12-31T13:52:18.754Z,99364.03
2022-12-31T13:54:52.058Z,99358.69
2022-12-31T13:57:21.002Z,99357.81
2022-12-31T13:59:52.401Z,99356.88
2022-12-31T14:02:27.009Z,99347.16
2022-12-31T14:04:57.443Z,99353.34
2022-12-31T14:07:32.220Z,99352.38
2022-12-31T14:10:01.884Z,99344.34
2022-12-31T14:12:34.995Z,99363.03
2022-12-31T14:15:07.791Z,99349.69
2022-12-31T14:17:38.698Z,99350.53
2022-12-31T14:20:11.618Z,99346.03
2022-12-31T14:22:43.382Z,99344.34
2022-12-31T14:25:15.545Z,99349.69
2022-12-31T14:27:42.997Z,99339.84
2022-12-31T14:30:14.908Z,99349.69
2022-12-31T14:32:48.339Z,99350.53
2022-12-31T14:35:27.325Z,99354.03
2022-12-31T14:37:58.269Z,99350.53
2022-12-31T14:40:26.664Z,99347.03
2022-12-31T14:43:00.790Z,99357.72
2022-12-31T14:45:34.912Z,99338.03
2022-12-31T14:48:06.398Z,99344.34
2022-12-31T14:50:33.322Z,99325.66
2022-12-31T14:53:07.069Z,99330.03
2022-12-31T14:55:34.391Z,99331.84
2022-12-31T14:58:27.285Z,99339.84
2022-12-31T15:00:53.686Z,99334.50
2022-12-31T15:03:24.950Z,99344.22
2022-12-31T15:05:52.819Z,99342.38
2022-12-31T15:08:28.529Z,99351.38
2022-12-31T15:11:06.797Z,99346.03
2022-12-31T15:13:40.699Z,99340.69
2022-12-31T15:16:15.277Z,99340.69
2022-12-31T15:18:49.730Z,99346.03
2022-12-31T15:21:25.889Z,99341.69
2022-12-31T15:23:52.360Z,99343.38
2022-12-31T15:26:20.905Z,99338.03
2022-12-31T15:28:55.973Z,99352.22
2022-12-31T15:31:23.956Z,99350.38
2022-12-31T15:33:55.645Z,99333.53
2022-12-31T15:36:23.437Z,99348.69
2022-12-31T15:38:50.199Z,99355.72
2022-12-31T15:41:25.687Z,99348.69
2022-12-31T15:43:54.429Z,99353.06
2022-12-31T15:46:23.562Z,99341.53
2022-12-31T15:48:55.444Z,99349.53
2022-12-31T15:51:26.704Z,99373.56
2022-12-31T15:53:53.796Z,99355.72
2022-12-31T15:56:23.587Z,99353.06
2022-12-31T15:58:53.380Z,99369.06
2022-12-31T16:01:20.987Z,99359.25
2022-12-31T16:03:49.219Z,99353.06
2022-12-31T16:06:17.421Z,99347.72
2022-12-31T16:08:45.006Z,99343.25
2022-12-31T16:11:11.474Z,99362.78
2022-12-31T16:13:40.225Z,99347.72
2022-12-31T16:16:08.437Z,99356.59
2022-12-31T16:18:36.446Z,99353.06
2022-12-31T16:21:02.743Z,99361.06
2022-12-31T16:23:30.357Z,99365.44
2022-12-31T16:25:58.123Z,99378.78
2022-12-31T16:28:27.960Z,99367.13
2022-12-31T16:30:57.169Z,99370.78
2022-12-31T16:33:23.551Z,99376.13
2022-12-31T16:35:54.563Z,99381.47
2022-12-31T16:38:20.988Z,99374.41
2022-12-31T16:43:42.578Z,99384.13
2022-12-31T16:46:11.415Z,99397.47
2022-12-31T16:48:37.961Z,99396.50
2022-12-31T16:51:04.874Z,99376.13
2022-12-31T16:53:34.081Z,99384.13
2022-12-31T16:56:02.060Z,99372.47
2022-12-31T16:58:30.378Z,99375.13
2022-12-31T17:01:00.996Z,99383.13
2022-12-31T17:03:28.265Z,99391.00
2022-12-31T17:05:57.459Z,99400.00
2022-12-31T17:08:25.252Z,99389.31
2022-12-31T17:10:51.592Z,99390.31
2022-12-31T17:13:30.086Z,99401.84
2022-12-31T17:15:57.741Z,99388.47
2022-12-31T17:18:26.174Z,99392.00
2022-12-31T17:20:54.169Z,99388.34
2022-12-31T17:23:23.571Z,99394.66
2022-12-31T17:25:56.822Z,99394.66
2022-12-31T17:28:23.921Z,99397.22
2022-12-31T17:30:50.574Z,99408.00
2022-12-31T17:33:26.722Z,99407.03
2022-12-31T17:35:56.116Z,99402.56
2022-12-31T17:38:29.358Z,99411.41
2022-12-31T17:41:01.236Z,99407.88
2022-12-31T17:43:31.514Z,99412.34
2022-12-31T17:46:01.913Z,99430.09
2022-12-31T17:48:28.445Z,99426.44
2022-12-31T17:50:56.897Z,99432.75
2022-12-31T17:53:23.613Z,99436.28
2022-12-31T17:55:51.077Z,99430.09
2022-12-31T17:58:18.342Z,99437.13
2022-12-31T18:00:44.676Z,99438.09
2022-12-31T18:03:11.132Z,99438.94
2022-12-31T18:05:37.523Z,99451.44
2022-12-31T18:08:05.223Z,99444.28
2022-12-31T18:10:34.352Z,99431.91
2022-12-31T18:13:00.714Z,99454.97
2022-12-31T18:15:27.084Z,99450.47
2022-12-31T18:17:53.521Z,99459.31
2022-12-31T18:20:19.830Z,99480.69
2022-12-31T18:22:46.284Z,99472.66
2022-12-31T18:25:16.730Z,99467.31
2022-12-31T18:27:43.034Z,99471.81
2022-12-31T18:30:09.746Z,99476.31
2022-12-31T18:32:37.194Z,99470.00
2022-12-31T18:35:03.743Z,99492.19
2022-12-31T18:37:31.351Z,99493.03
2022-12-31T18:39:57.616Z,99502.88
2022-12-31T18:42:27.740Z,99498.38
2022-12-31T18:44:54.063Z,99501.19
2022-12-31T18:47:20.763Z,99519.75
2022-12-31T18:49:47.161Z,99525.06
2022-12-31T18:52:14.182Z,99516.22
2022-12-31T18:54:40.867Z,99518.91
2022-12-31T18:57:07.165Z,99541.09
2022-12-31T18:59:34.813Z,99541.97
2022-12-31T19:02:01.450Z,99541.97
2022-12-31T19:04:28.508Z,99544.66
2022-12-31T19:06:55.276Z,99551.78
2022-12-31T19:12:10.013Z,99538.44
2022-12-31T19:14:37.759Z,99541.97
2022-12-31T19:19:29.305Z,99538.44
2022-12-31T19:21:55.709Z,99561.50
2022-12-31T19:24:23.060Z,99577.53
2022-12-31T19:26:49.857Z,99567.81
2022-12-31T19:29:16.997Z,99568.69
2022-12-31T19:31:44.671Z,99584.69
2022-12-31T19:34:11.011Z,99577.53
2022-12-31T19:36:43.564Z,99574.84
2022-12-31T19:39:13.217Z,99587.22
2022-12-31T19:41:41.287Z,99576.53
2022-12-31T19:44:08.795Z,99580.19
2022-12-31T19:46:35.249Z,99585.53
2022-12-31T19:49:02.909Z,99590.88
2022-12-31T19:51:29.207Z,99596.22
2022-12-31T19:53:55.658Z,99589.06
2022-12-31T19:56:22.005Z,99592.56
2022-12-31T19:58:48.287Z,99576.53
2022-12-31T20:01:18.004Z,99592.72
2022-12-31T20:03:44.370Z,99588.22
2022-12-31T20:06:12.014Z,99589.16
2022-12-31T20:08:38.596Z,99598.06
2022-12-31T20:11:08.362Z,99609.44
2022-12-31T20:13:34.689Z,99627.41
2022-12-31T20:16:01.010Z,99624.59
2022-12-31T20:18:27.485Z,99642.56
2022-12-31T20:20:56.031Z,99648.63
2022-12-31T20:23:23.803Z,99663.81
2022-12-31T20:25:56.511Z,99670.16
2022-12-31T20:28:22.874Z,99662.00
2022-12-31T20:30:49.275Z,99667.47
2022-12-31T20:33:19.016Z,99662.00
2022-12-31T20:35:45.728Z,99661.16
2022-12-31T20:38:12.068Z,99663.81
2022-12-31T20:40:46.218Z,99665.66
2022-12-31T20:43:13.165Z,99653.97
2022-12-31T20:45:40.112Z,99668.31
2022-12-31T20:48:06.585Z,99669.16
2022-12-31T20:50:32.987Z,99671.00
2022-12-31T20:52:59.326Z,99666.50
2022-12-31T20:55:25.629Z,99672.66
2022-12-31T20:57:53.990Z,99666.50
2022-12-31T21:00:20.354Z,99667.47
2022-12-31T21:02:53.903Z,99663.94
2022-12-31T21:05:24.276Z,99655.91
2022-12-31T21:07:50.798Z,99647.91
2022-12-31T21:10:17.116Z,99655.09
2022-12-31T21:12:43.432Z,99659.47
2022-12-31T21:15:11.433Z,99643.44
2022-12-31T21:17:37.786Z,99636.38
2022-12-31T21:20:04.933Z,99638.09
2022-12-31T21:22:31.409Z,99638.94
2022-12-31T21:24:57.679Z,99643.44
2022-12-31T21:27:24.003Z,99634.56
2022-12-31T21:30:17.625Z,99638.94
2022-12-31T21:32:37.951Z,99627.41
2022-12-31T21:35:41.083Z,99629.22
2022-12-31T21:37:58.308Z,99641.72
2022-12-31T21:40:26.804Z,99631.88
2022-12-31T21:42:53.242Z,99631.88
2022-12-31T21:45:19.575Z,99653.25
2022-12-31T21:47:47.874Z,99635.56
2022-12-31T21:50:14.413Z,99626.56
2022-12-31T21:52:40.868Z,99643.44
2022-12-31T21:55:07.515Z,99643.44
2022-12-31T21:57:51.849Z,99645.25
2022-12-31T22:00:43.683Z,99637.22
2022-12-31T22:03:10.096Z,99651.56
2022-12-31T22:05:37.249Z,99652.41
2022-12-31T22:08:03.633Z,99647.91
2022-12-31T22:10:36.968Z,99661.25
2022-12-31T22:13:04.085Z,99640.03
2022-12-31T22:15:30.478Z,99630.22
2022-12-31T22:17:56.789Z,99630.22
2022-12-31T22:20:28.511Z,99630.22
2022-12-31T22:22:55.304Z,99630.22
2022-12-31T22:25:21.644Z,99630.09
2022-12-31T22:28:11.685Z,99631.06
2022-12-31T22:30:34.767Z,99622.19
2022-12-31T22:33:01.095Z,99628.38
2022-12-31T22:35:28.721Z,99624.88
2022-12-31T22:37:57.319Z,99624.88
2022-12-31T22:40:25.378Z,99630.22
2022-12-31T22:42:51.665Z,99651.56
2022-12-31T22:45:18.255Z,99667.59
2022-12-31T22:47:44.702Z,99695.97
2022-12-31T22:50:11.024Z,99699.63
2022-12-31T22:52:38.629Z,99709.34
2022-12-31T22:55:05.423Z,99725.34
2022-12-31T22:57:31.748Z,99736.03
2022-12-31T22:59:58.053Z,99741.38
2022-12-31T23:02:24.351Z,99737.88
2022-12-31T23:04:50.680Z,99755.59
2022-12-31T23:07:16.975Z,99769.06
2022-12-31T23:09:44.631Z,99774.41
2022-12-31T23:12:10.965Z,99792.13
2022-12-31T23:14:37.727Z,99790.31
2022-12-31T23:17:31.515Z,99799.16
2022-12-31T23:19:50.400Z,99802.78
2022-12-31T23:22:16.828Z,99803.66
2022-12-31T23:24:43.210Z,99797.44
2022-12-31T23:27:11.346Z,99803.66
2022-12-31T23:29:45.538Z,99814.34
2022-12-31T23:32:13.349Z,99812.63
2022-12-31T23:34:39.691Z,99826.84
2022-12-31T23:37:06.001Z,99821.50
2022-12-31T23:39:32.299Z,99830.38
2022-12-31T23:41:58.732Z,99836.56
2022-12-31T23:44:26.745Z,99849.06
2022-12-31T23:46:53.162Z,99840.19
2022-12-31T23:49:19.817Z,99832.16
2022-12-31T23:51:46.162Z,99826.84
2022-12-31T23:54:12.536Z,99825.03
2022-12-31T23:56:38.861Z,99818.81
2022-12-31T23:59:05.314Z,99818.81
